Flight Track Log - Related Links

Times and Time Zones

All times are in EDT time to prevent confusion due to time zone crossing. See the N11TK flight status page for this flight to view local times or setup timezone preferences in your user account.

Time Position Orientation Groundspeed Altitude Reporting Facility
EDT Latitude Longitude Course Direction KTS MPH feet Rate Location/Type
Sat 03:49:49 PM 31.8125 -93.4461 297° West 157 181 8,500  Level Houston Center
Sat 03:50:15 PM 31.8183 -93.4597 297° West 157 181 8,800 897 Climbing Houston Center
Sat 03:51:16 PM 31.8344 -93.5111 290° West 162 186 9,800 976 Climbing Houston Center
Sat 03:52:18 PM 31.8508 -93.5633 290° West 165 190 10,800 968 Climbing Houston Center
Sat 03:53:20 PM 31.8750 -93.6136 300° West 171 197 11,800 1,000 Climbing Houston Center
Sat 03:54:06 PM 31.8969 -93.6539 303° West 174 200 12,600 1,056 Climbing Fort Worth Center
Sat 03:55:08 PM 31.9325 -93.7203 302° West 207 238 13,700 1,065 Climbing Fort Worth Center
Sat 03:56:10 PM 31.9639 -93.7803 302° West 206 237 14,800 1,008 Climbing Fort Worth Center
Sat 03:57:13 PM 31.9861 -93.8403 294° West 202 232 15,800 816 Climbing Fort Worth Center
Sat 03:58:15 PM 32.0100 -93.9036 294° West 198 228 16,500 339 Climbing Fort Worth Center
Sat 03:59:17 PM 32.0339 -93.9694 293° West 213 245 16,500  Level Fort Worth Center
Sat 04:00:19 PM 32.0603 -94.0428 293° West 224 258 16,500  Level Fort Worth Center
Sat 04:01:21 PM 32.0850 -94.1097 294° West 224 258 16,500  Level Fort Worth Center
Sat 04:02:23 PM 32.1117 -94.1825 293° West 223 257 16,500 -242 Level Fort Worth Center
Sat 04:03:25 PM 32.1364 -94.2511 293° West 225 259 16,000 -432 Descending Fort Worth Center
Sat 04:04:28 PM 32.1617 -94.3211 293° West 229 264 15,600 -384 Descending Fort Worth Center
Sat 04:05:30 PM 32.1850 -94.3864 293° West 233 268 15,200 -387 Descending Fort Worth Center
Sat 04:06:32 PM 32.2133 -94.4639 293° West 228 262 14,800 -387 Descending Fort Worth Center
Sat 04:07:34 PM 32.2394 -94.5372 293° West 227 261 14,400 -387 Descending Fort Worth Center
Sat 04:08:36 PM 32.2644 -94.6053 293° West 227 261 14,000 -387 Descending Fort Worth Center
Sat 04:09:38 PM 32.2864 -94.6697 292° West 229 264 13,600 -387 Descending Fort Worth Center
Sat 04:10:40 PM 32.3111 -94.7403 293° West 229 264 13,200 -435 Descending Fort Worth Center
Sat 04:11:42 PM 32.3419 -94.8256 293° West 234 269 12,700 -480 Descending Fort Worth Center
Sat 04:12:45 PM 32.3675 -94.8975 293° West 235 270 12,200 -432 Descending Fort Worth Center
Sat 04:13:47 PM 32.3903 -94.9672 291° West 229 264 11,800 -387 Descending Fort Worth Center
Sat 04:14:49 PM 32.4167 -95.0333 295° West 230 265 11,400 -387 Descending Fort Worth Center
Sat 04:15:51 PM 32.4453 -95.1156 292° West 227 261 11,000 -387 Descending Fort Worth Center
Sat 04:16:53 PM 32.4692 -95.1847 292° West 227 261 10,600 -384 Descending Fort Worth Center
Sat 04:17:56 PM 32.4953 -95.2592 293° West 228 262 10,200 -435 Descending Fort Worth Center
Sat 04:18:57 PM 32.5181 -95.3219 293° West 224 258 9,700 -435 Descending Fort Worth Center
Sat 04:20:00 PM 32.5422 -95.3906 293° West 226 260 9,300 -384 Descending Fort Worth Center
Sat 04:21:02 PM 32.5653 -95.4572 292° West 220 253 8,900 -387 Descending Fort Worth Center
Sat 04:22:04 PM 32.5931 -95.5381 292° West 219 252 8,500 -387 Descending Fort Worth Center
Sat 04:23:06 PM 32.6161 -95.6044 292° West 216 249 8,100 -387 Descending Fort Worth Center
Sat 04:24:08 PM 32.6428 -95.6744 294° West 216 249 7,700 -387 Descending Fort Worth Center
Sat 04:25:10 PM 32.6639 -95.7411 291° West 215 247 7,300 -384 Descending Fort Worth Center
Sat 04:26:13 PM 32.6883 -95.8106 293° West 212 244 6,900 -384 Descending Fort Worth Center
Sat 04:27:15 PM 32.7106 -95.8758 292° West 212 244 6,500 -387 Descending Fort Worth Center
Sat 04:28:17 PM 32.7344 -95.9453 292° West 212 244 6,100 -339 Descending Fort Worth Center
Sat 04:29:19 PM 32.7564 -96.0089 292° West 211 243 5,800 -339 Descending Fort Worth Center
Sat 04:30:21 PM 32.7803 -96.0789 292° West 211 243 5,400 -387 Descending Fort Worth Center
Sat 04:31:23 PM 32.8019 -96.1425 292° West 210 242 5,000 -387 Descending Fort Worth Center
Sat 04:32:25 PM 32.8233 -96.2061 292° West 207 238 4,600 -336 Descending Fort Worth Center
Sat 04:33:28 PM 32.8461 -96.2700 293° West 197 227 4,300 -336 Descending Fort Worth Center
Sat 04:34:30 PM 32.8661 -96.3306 291° West 197 227 3,900 -387 Descending Fort Worth Center
Sat 04:35:32 PM 32.8878 -96.3939 292° West 192 221 3,500 -290 Descending Fort Worth Center
Sat 04:36:34 PM 32.9069 -96.4511 292° West 187 215 3,300 -290 Descending Fort Worth Center
Sat 04:37:36 PM 32.9147 -96.5114 279° West 178 205 2,900 -339 Descending Fort Worth Center
Sat 04:38:38 PM 32.8742 -96.5275 198° South 159 183 2,600 -581 Descending Fort Worth Center
Sat 04:39:40 PM 32.8261 -96.5283 181° South 161 185 1,700 -720 Descending Fort Worth Center
Sat 04:40:43 PM 32.7869 -96.5294 181° South 141 162 1,100 -528 Descending Fort Worth Center
Sat 04:41:45 PM 32.7617 -96.5303 182° South 107 123 600 -484 Descending Fort Worth Center
Sat 04:43:00 PM 32.7470 -96.5304 199° South  Level Estimated
Sat 04:50:00 PM 32.7470 -96.5304 North  Level Estimated

Login

Don't have an account? Register now (free) for customized features, flight alerts, and more!